North Salt Lake
Center St & Main St, North Salt Lake
Last Weather Update:04/16/2012 9:00:00 AM
Date
ETo
ETc
Rain
Irrigation
Req
Temp
Max
Temp
Min
Temp
Avg
Avg RH
Avg Wind
Avg Solar
inches
inches
incehs
inches
F
F
F
%
%
watts/m2
03/01/2012 0.04" 0.00" 0.20" -0.16" 36.7° 23.3° 30.0° 99.0% 2.9 MPH 126.9w/m2
03/02/2012 0.06" 0.00" 0.08" -0.06" 33.9° 21.3° 27.9° 51.3% 4.4 MPH 173.5w/m2
03/03/2012 0.05" 0.00" 0.00" 0.00" 41.1° 28.8° 35.4° 68.3% 3.9 MPH 97.4w/m2
03/04/2012 0.10" 0.00" 0.00" 0.00" 54.3° 31.1° 43.2° 55.2% 2.9 MPH 205.9w/m2
03/05/2012 0.14" 0.00" 0.00" 0.00" 64.8° 32.2° 50.5° 22.1% 5.8 MPH 197.2w/m2
03/06/2012 0.10" 0.00" 0.00" 0.00" 58.1° 25.6° 46.0° 99.7% 8.9 MPH 60.1w/m2
03/07/2012 0.08" 0.00" 0.11" -0.09" 42.4° 22.8° 31.9° 62.6% 4.0 MPH 199.9w/m2
03/08/2012 0.08" 0.00" 0.00" 0.00" 45.4° 24.2° 34.4° 72.4% 3.5 MPH 214.1w/m2
03/09/2012 0.09" 0.00" 0.00" 0.00" 51.1° 26.8° 38.1° 64.8% 2.9 MPH 212.9w/m2
03/10/2012 0.10" 0.00" 0.00" 0.00" 56.3° 28.3° 41.8° 61.5% 2.9 MPH 215.9w/m2
03/11/2012 0.14" 0.00" 0.00" 0.00" 63.9° 35.3° 50.8° 24.1% 5.4 MPH 203.4w/m2
03/12/2012 0.19" 0.00" 0.00" 0.00" 66.2° 48.3° 57.3° 19.9% 8.0 MPH 219.1w/m2
03/13/2012 0.19" 0.00" 0.00" 0.00" 65.2° 53.6° 59.4° 21.0% 10.1 MPH 144.3w/m2
03/14/2012 0.14" 0.00" 0.00" 0.00" 62.1° 53.6° 57.7° 41.9% 6.2 MPH 120.6w/m2
03/15/2012 0.16" 0.00" 0.00" 0.00" 69.1° 45.1° 57.6° 24.0% 4.2 MPH 214.3w/m2
03/16/2012 0.17" 0.00" 0.00" 0.00" 65.5° 56.7° 61.0° 26.8% 8.3 MPH 115.1w/m2
03/17/2012 0.19" 0.00" 0.00" 0.00" 65.1° 51.0° 58.6° 42.6% 9.3 MPH 134.9w/m2
03/18/2012 0.06" 0.00" 0.53" -0.42" 52.6° 32.4° 40.4° 77.7% 7.8 MPH 66.2w/m2
03/19/2012 0.08" 0.00" 0.02" -0.02" 41.6° 31.1° 35.8° 72.6% 4.4 MPH 161.4w/m2
03/20/2012 0.10" 0.00" 0.00" 0.00" 47.5° 26.2° 38.2° 43.8% 3.2 MPH 239.6w/m2
03/21/2012 0.14" 0.00" 0.00" 0.00" 61.6° 41.1° 50.5° 46.2% 4.1 MPH 236.1w/m2
03/22/2012 0.18" 0.00" 0.00" 0.00" 71.1° 38.7° 57.4° 21.2% 4.4 MPH 241.1w/m2
03/23/2012 0.19" 0.00" 0.00" 0.00" 71.0° 59.1° 65.2° 24.5% 8.2 MPH 121.8w/m2
03/24/2012 0.18" 0.00" 0.00" 0.00" 71.1° 55.3° 63.5° 26.2% 5.6 MPH 198.0w/m2
03/25/2012 0.17" 0.00" 0.00" 0.00" 71.7° 55.9° 64.3° 24.7% 5.4 MPH 161.2w/m2
03/26/2012 0.11" 0.00" 0.09" -0.07" 60.7° 37.9° 49.1° 46.0% 6.7 MPH 162.5w/m2
03/27/2012 0.12" 0.00" 0.00" 0.00" 61.7° 37.3° 49.9° 28.6% 4.1 MPH 167.2w/m2
03/28/2012 0.15" 0.00" 0.05" -0.04" 64.5° 44.4° 55.9° 85.2% 7.0 MPH 152.3w/m2
03/29/2012 0.10" 0.00" 0.01" -0.01" 58.9° 34.8° 48.0° 58.2% 2.5 MPH 170.4w/m2
03/30/2012 0.15" 0.00" 0.00" 0.00" 70.2° 42.9° 57.4° 50.4% 3.7 MPH 218.2w/m2
03/31/2012 0.29" 0.00" 0.00" 0.00" 78.1° 53.2° 68.4° 20.1% 12.2 MPH 258.7w/m2
Totals: 4.01" 0.00" 1.09" -0.87" 78.1° 21.3° 49.2° 47.8% 5.6 MPH 174.5w/m2